sensor_id;sensor_type;location;lat;lon;timestamp;P1;durP1;ratioP1;P2;durP2;ratioP2
13866;SDS011;7003;46.982;15.248;2022-08-19T00:00:00;3.13;;;2.35;;
13866;SDS011;7003;46.982;15.248;2022-08-19T00:02:28;4.25;;;2.55;;
13866;SDS011;7003;46.982;15.248;2022-08-19T00:04:55;5.70;;;2.72;;
13866;SDS011;7003;46.982;15.248;2022-08-19T00:07:30;2.35;;;1.98;;
13866;SDS011;7003;46.982;15.248;2022-08-19T00:09:57;3.30;;;2.28;;
13866;SDS011;7003;46.982;15.248;2022-08-19T00:12:26;4.80;;;1.92;;
13866;SDS011;7003;46.982;15.248;2022-08-19T00:14:53;5.72;;;2.42;;
13866;SDS011;7003;46.982;15.248;2022-08-19T00:17:22;5.13;;;2.22;;
13866;SDS011;7003;46.982;15.248;2022-08-19T00:19:52;2.85;;;2.65;;
13866;SDS011;7003;46.982;15.248;2022-08-19T00:22:19;2.38;;;2.00;;
13866;SDS011;7003;46.982;15.248;2022-08-19T00:24:48;2.90;;;2.60;;
13866;SDS011;7003;46.982;15.248;2022-08-19T00:27:19;3.08;;;2.50;;
13866;SDS011;7003;46.982;15.248;2022-08-19T00:29:48;4.30;;;2.22;;
13866;SDS011;7003;46.982;15.248;2022-08-19T00:32:16;3.67;;;2.28;;
13866;SDS011;7003;46.982;15.248;2022-08-19T00:34:43;1.55;;;1.45;;
13866;SDS011;7003;46.982;15.248;2022-08-19T00:37:14;4.45;;;2.25;;
13866;SDS011;7003;46.982;15.248;2022-08-19T00:39:43;1.70;;;1.60;;
13866;SDS011;7003;46.982;15.248;2022-08-19T00:42:10;2.75;;;1.88;;
13866;SDS011;7003;46.982;15.248;2022-08-19T00:44:41;3.15;;;2.33;;
13866;SDS011;7003;46.982;15.248;2022-08-19T00:47:12;2.60;;;1.60;;
13866;SDS011;7003;46.982;15.248;2022-08-19T00:49:41;4.85;;;2.28;;
13866;SDS011;7003;46.982;15.248;2022-08-19T00:52:14;1.85;;;1.60;;
13866;SDS011;7003;46.982;15.248;2022-08-19T00:54:44;2.55;;;2.05;;
13866;SDS011;7003;46.982;15.248;2022-08-19T00:57:14;2.35;;;2.15;;
13866;SDS011;7003;46.982;15.248;2022-08-19T00:59:44;2.42;;;2.10;;
13866;SDS011;7003;46.982;15.248;2022-08-19T01:02:15;7.82;;;2.97;;
13866;SDS011;7003;46.982;15.248;2022-08-19T01:04:44;4.03;;;3.45;;
13866;SDS011;7003;46.982;15.248;2022-08-19T01:07:14;7.35;;;1.80;;
13866;SDS011;7003;46.982;15.248;2022-08-19T01:09:41;3.42;;;1.50;;
13866;SDS011;7003;46.982;15.248;2022-08-19T01:12:08;5.18;;;1.83;;
13866;SDS011;7003;46.982;15.248;2022-08-19T01:14:39;3.10;;;2.45;;
13866;SDS011;7003;46.982;15.248;2022-08-19T01:17:09;2.58;;;2.38;;
13866;SDS011;7003;46.982;15.248;2022-08-19T01:19:42;3.15;;;2.25;;
13866;SDS011;7003;46.982;15.248;2022-08-19T01:22:14;3.75;;;1.85;;
13866;SDS011;7003;46.982;15.248;2022-08-19T01:24:49;3.10;;;1.90;;
13866;SDS011;7003;46.982;15.248;2022-08-19T01:27:17;2.67;;;2.28;;
13866;SDS011;7003;46.982;15.248;2022-08-19T01:29:44;6.72;;;2.90;;
13866;SDS011;7003;46.982;15.248;2022-08-19T01:32:15;4.68;;;2.22;;
13866;SDS011;7003;46.982;15.248;2022-08-19T01:34:44;5.13;;;2.47;;
13866;SDS011;7003;46.982;15.248;2022-08-19T01:37:14;3.90;;;2.63;;
13866;SDS011;7003;46.982;15.248;2022-08-19T01:39:46;2.67;;;2.45;;
13866;SDS011;7003;46.982;15.248;2022-08-19T01:42:15;3.60;;;2.85;;
13866;SDS011;7003;46.982;15.248;2022-08-19T01:44:43;5.85;;;2.28;;
13866;SDS011;7003;46.982;15.248;2022-08-19T01:47:11;3.35;;;2.88;;
13866;SDS011;7003;46.982;15.248;2022-08-19T01:49:38;3.42;;;3.00;;
13866;SDS011;7003;46.982;15.248;2022-08-19T01:52:08;3.83;;;2.67;;
13866;SDS011;7003;46.982;15.248;2022-08-19T01:54:35;3.35;;;1.95;;
13866;SDS011;7003;46.982;15.248;2022-08-19T01:57:03;2.03;;;1.85;;
13866;SDS011;7003;46.982;15.248;2022-08-19T01:59:46;8.27;;;2.55;;
13866;SDS011;7003;46.982;15.248;2022-08-19T02:02:16;4.82;;;2.67;;
13866;SDS011;7003;46.982;15.248;2022-08-19T02:04:43;6.10;;;2.55;;
13866;SDS011;7003;46.982;15.248;2022-08-19T02:07:11;4.60;;;2.55;;
13866;SDS011;7003;46.982;15.248;2022-08-19T02:09:38;2.92;;;2.30;;
13866;SDS011;7003;46.982;15.248;2022-08-19T02:12:07;3.58;;;2.40;;
13866;SDS011;7003;46.982;15.248;2022-08-19T02:14:38;2.22;;;1.98;;
13866;SDS011;7003;46.982;15.248;2022-08-19T02:17:07;3.83;;;2.33;;
13866;SDS011;7003;46.982;15.248;2022-08-19T02:19:37;2.47;;;2.28;;
13866;SDS011;7003;46.982;15.248;2022-08-19T02:22:05;4.00;;;2.40;;
13866;SDS011;7003;46.982;15.248;2022-08-19T02:24:34;4.00;;;2.45;;
13866;SDS011;7003;46.982;15.248;2022-08-19T02:27:05;3.80;;;2.08;;
13866;SDS011;7003;46.982;15.248;2022-08-19T02:29:36;1.98;;;1.63;;
13866;SDS011;7003;46.982;15.248;2022-08-19T02:32:03;4.80;;;2.70;;
13866;SDS011;7003;46.982;15.248;2022-08-19T02:34:35;3.67;;;2.33;;
13866;SDS011;7003;46.982;15.248;2022-08-19T02:37:04;4.30;;;2.42;;
13866;SDS011;7003;46.982;15.248;2022-08-19T02:39:54;3.50;;;2.42;;
13866;SDS011;7003;46.982;15.248;2022-08-19T02:42:20;3.28;;;2.47;;
13866;SDS011;7003;46.982;15.248;2022-08-19T02:44:51;4.20;;;2.90;;
13866;SDS011;7003;46.982;15.248;2022-08-19T02:47:22;5.97;;;3.08;;
13866;SDS011;7003;46.982;15.248;2022-08-19T02:49:53;3.97;;;2.38;;
13866;SDS011;7003;46.982;15.248;2022-08-19T02:52:21;3.58;;;2.65;;
13866;SDS011;7003;46.982;15.248;2022-08-19T02:54:49;6.20;;;2.47;;
13866;SDS011;7003;46.982;15.248;2022-08-19T02:57:18;5.32;;;3.20;;
13866;SDS011;7003;46.982;15.248;2022-08-19T02:59:45;5.50;;;3.05;;
13866;SDS011;7003;46.982;15.248;2022-08-19T03:02:12;5.10;;;3.70;;
13866;SDS011;7003;46.982;15.248;2022-08-19T03:04:42;5.43;;;2.42;;
13866;SDS011;7003;46.982;15.248;2022-08-19T03:07:13;4.78;;;2.75;;
13866;SDS011;7003;46.982;15.248;2022-08-19T03:09:48;2.63;;;2.33;;
13866;SDS011;7003;46.982;15.248;2022-08-19T03:12:16;2.90;;;2.70;;
13866;SDS011;7003;46.982;15.248;2022-08-19T03:14:44;7.65;;;3.20;;
13866;SDS011;7003;46.982;15.248;2022-08-19T03:17:15;3.80;;;2.92;;
13866;SDS011;7003;46.982;15.248;2022-08-19T03:19:42;4.72;;;3.03;;
13866;SDS011;7003;46.982;15.248;2022-08-19T03:22:13;4.03;;;2.25;;
13866;SDS011;7003;46.982;15.248;2022-08-19T03:24:41;3.17;;;2.42;;
13866;SDS011;7003;46.982;15.248;2022-08-19T03:27:11;4.00;;;2.88;;
13866;SDS011;7003;46.982;15.248;2022-08-19T03:29:39;3.20;;;2.83;;
13866;SDS011;7003;46.982;15.248;2022-08-19T03:32:10;2.38;;;2.17;;
13866;SDS011;7003;46.982;15.248;2022-08-19T03:34:40;2.60;;;2.40;;
13866;SDS011;7003;46.982;15.248;2022-08-19T03:37:08;5.53;;;3.70;;
13866;SDS011;7003;46.982;15.248;2022-08-19T03:39:39;6.78;;;3.55;;
13866;SDS011;7003;46.982;15.248;2022-08-19T03:42:07;2.83;;;2.63;;
13866;SDS011;7003;46.982;15.248;2022-08-19T03:44:36;5.20;;;3.05;;
13866;SDS011;7003;46.982;15.248;2022-08-19T03:47:04;2.58;;;2.38;;
13866;SDS011;7003;46.982;15.248;2022-08-19T03:49:32;6.47;;;3.58;;
13866;SDS011;7003;46.982;15.248;2022-08-19T03:52:03;3.60;;;3.17;;
13866;SDS011;7003;46.982;15.248;2022-08-19T03:54:35;4.55;;;2.63;;
13866;SDS011;7003;46.982;15.248;2022-08-19T03:57:06;3.72;;;3.17;;
13866;SDS011;7003;46.982;15.248;2022-08-19T03:59:37;5.63;;;2.90;;
13866;SDS011;7003;46.982;15.248;2022-08-19T04:02:09;3.17;;;2.80;;
13866;SDS011;7003;46.982;15.248;2022-08-19T04:04:38;3.88;;;2.63;;
13866;SDS011;7003;46.982;15.248;2022-08-19T04:07:08;2.90;;;2.67;;
13866;SDS011;7003;46.982;15.248;2022-08-19T04:09:39;3.10;;;2.85;;
13866;SDS011;7003;46.982;15.248;2022-08-19T04:12:09;5.03;;;3.40;;
13866;SDS011;7003;46.982;15.248;2022-08-19T04:14:38;3.75;;;3.45;;
13866;SDS011;7003;46.982;15.248;2022-08-19T04:17:09;2.97;;;2.60;;
13866;SDS011;7003;46.982;15.248;2022-08-19T04:19:41;2.83;;;2.45;;
13866;SDS011;7003;46.982;15.248;2022-08-19T04:22:10;3.70;;;3.25;;
13866;SDS011;7003;46.982;15.248;2022-08-19T04:24:42;9.80;;;3.42;;
13866;SDS011;7003;46.982;15.248;2022-08-19T04:27:13;6.68;;;2.65;;
13866;SDS011;7003;46.982;15.248;2022-08-19T04:29:42;3.00;;;2.58;;
13866;SDS011;7003;46.982;15.248;2022-08-19T04:32:10;6.40;;;2.80;;
13866;SDS011;7003;46.982;15.248;2022-08-19T04:34:41;3.95;;;2.55;;
13866;SDS011;7003;46.982;15.248;2022-08-19T04:37:10;3.33;;;2.55;;
13866;SDS011;7003;46.982;15.248;2022-08-19T04:39:41;2.90;;;2.20;;
13866;SDS011;7003;46.982;15.248;2022-08-19T04:42:28;2.42;;;2.05;;
13866;SDS011;7003;46.982;15.248;2022-08-19T04:45:10;2.13;;;1.92;;
13866;SDS011;7003;46.982;15.248;2022-08-19T04:47:42;1.63;;;1.48;;
13866;SDS011;7003;46.982;15.248;2022-08-19T04:50:16;1.23;;;1.13;;
13866;SDS011;7003;46.982;15.248;2022-08-19T04:52:46;1.20;;;1.02;;
13866;SDS011;7003;46.982;15.248;2022-08-19T04:55:21;2.28;;;1.35;;
13866;SDS011;7003;46.982;15.248;2022-08-19T04:57:53;1.00;;;0.90;;
13866;SDS011;7003;46.982;15.248;2022-08-19T05:00:23;1.50;;;0.90;;
13866;SDS011;7003;46.982;15.248;2022-08-19T05:02:52;1.58;;;1.48;;
13866;SDS011;7003;46.982;15.248;2022-08-19T05:05:21;0.85;;;0.82;;
13866;SDS011;7003;46.982;15.248;2022-08-19T05:07:49;1.27;;;1.17;;
13866;SDS011;7003;46.982;15.248;2022-08-19T05:10:18;1.60;;;1.45;;
13866;SDS011;7003;46.982;15.248;2022-08-19T05:12:47;0.93;;;0.93;;
13866;SDS011;7003;46.982;15.248;2022-08-19T05:15:17;2.90;;;1.38;;
13866;SDS011;7003;46.982;15.248;2022-08-19T05:17:47;0.73;;;0.73;;
13866;SDS011;7003;46.982;15.248;2022-08-19T05:20:30;1.58;;;1.00;;
13866;SDS011;7003;46.982;15.248;2022-08-19T05:23:16;1.40;;;0.82;;
13866;SDS011;7003;46.982;15.248;2022-08-19T05:25:44;0.88;;;0.70;;
13866;SDS011;7003;46.982;15.248;2022-08-19T05:28:14;1.05;;;0.55;;
13866;SDS011;7003;46.982;15.248;2022-08-19T05:30:51;0.82;;;0.82;;
13866;SDS011;7003;46.982;15.248;2022-08-19T05:33:22;1.38;;;1.08;;
13866;SDS011;7003;46.982;15.248;2022-08-19T05:35:55;1.50;;;1.40;;
13866;SDS011;7003;46.982;15.248;2022-08-19T05:38:24;1.40;;;1.30;;
13866;SDS011;7003;46.982;15.248;2022-08-19T05:40:54;2.60;;;1.75;;
13866;SDS011;7003;46.982;15.248;2022-08-19T05:43:27;1.95;;;1.75;;
13866;SDS011;7003;46.982;15.248;2022-08-19T05:45:58;5.65;;;3.20;;
13866;SDS011;7003;46.982;15.248;2022-08-19T05:48:29;1.55;;;1.42;;
13866;SDS011;7003;46.982;15.248;2022-08-19T05:51:03;7.63;;;2.85;;
13866;SDS011;7003;46.982;15.248;2022-08-19T05:53:39;3.35;;;2.58;;
13866;SDS011;7003;46.982;15.248;2022-08-19T05:56:13;2.88;;;2.35;;
13866;SDS011;7003;46.982;15.248;2022-08-19T05:58:45;2.67;;;2.47;;
13866;SDS011;7003;46.982;15.248;2022-08-19T06:01:19;3.10;;;2.88;;
13866;SDS011;7003;46.982;15.248;2022-08-19T06:03:51;3.20;;;2.55;;
13866;SDS011;7003;46.982;15.248;2022-08-19T06:06:21;3.20;;;2.58;;
13866;SDS011;7003;46.982;15.248;2022-08-19T06:08:52;5.18;;;2.70;;
13866;SDS011;7003;46.982;15.248;2022-08-19T06:11:21;5.43;;;2.75;;
13866;SDS011;7003;46.982;15.248;2022-08-19T06:13:51;3.22;;;2.58;;
13866;SDS011;7003;46.982;15.248;2022-08-19T06:16:23;2.88;;;2.50;;
13866;SDS011;7003;46.982;15.248;2022-08-19T06:18:53;3.67;;;2.33;;
13866;SDS011;7003;46.982;15.248;2022-08-19T06:21:23;4.03;;;3.08;;
13866;SDS011;7003;46.982;15.248;2022-08-19T06:23:53;2.13;;;1.88;;
13866;SDS011;7003;46.982;15.248;2022-08-19T06:26:22;3.08;;;2.50;;
13866;SDS011;7003;46.982;15.248;2022-08-19T06:28:51;2.78;;;2.35;;
13866;SDS011;7003;46.982;15.248;2022-08-19T06:31:21;2.17;;;1.92;;
13866;SDS011;7003;46.982;15.248;2022-08-19T06:33:53;4.30;;;2.60;;
13866;SDS011;7003;46.982;15.248;2022-08-19T06:36:22;3.30;;;2.45;;
13866;SDS011;7003;46.982;15.248;2022-08-19T06:38:57;7.88;;;2.85;;
13866;SDS011;7003;46.982;15.248;2022-08-19T06:41:27;4.40;;;2.50;;
13866;SDS011;7003;46.982;15.248;2022-08-19T06:43:58;7.10;;;2.55;;
13866;SDS011;7003;46.982;15.248;2022-08-19T06:46:31;3.22;;;2.03;;
13866;SDS011;7003;46.982;15.248;2022-08-19T06:48:59;3.67;;;2.45;;
13866;SDS011;7003;46.982;15.248;2022-08-19T06:51:27;2.85;;;2.42;;
13866;SDS011;7003;46.982;15.248;2022-08-19T06:53:59;3.45;;;2.78;;
13866;SDS011;7003;46.982;15.248;2022-08-19T06:56:29;2.42;;;2.25;;
13866;SDS011;7003;46.982;15.248;2022-08-19T06:59:01;1.92;;;1.83;;
13866;SDS011;7003;46.982;15.248;2022-08-19T07:01:35;5.78;;;2.05;;
13866;SDS011;7003;46.982;15.248;2022-08-19T07:04:04;4.40;;;3.13;;
13866;SDS011;7003;46.982;15.248;2022-08-19T07:06:37;3.40;;;2.88;;
13866;SDS011;7003;46.982;15.248;2022-08-19T07:09:07;2.22;;;2.03;;
13866;SDS011;7003;46.982;15.248;2022-08-19T07:11:43;3.00;;;2.33;;
13866;SDS011;7003;46.982;15.248;2022-08-19T07:14:12;3.83;;;2.58;;
13866;SDS011;7003;46.982;15.248;2022-08-19T07:16:45;2.22;;;2.03;;
13866;SDS011;7003;46.982;15.248;2022-08-19T07:19:15;2.45;;;1.98;;
13866;SDS011;7003;46.982;15.248;2022-08-19T07:21:44;2.35;;;1.65;;
13866;SDS011;7003;46.982;15.248;2022-08-19T07:24:13;1.52;;;1.42;;
13866;SDS011;7003;46.982;15.248;2022-08-19T07:26:42;3.88;;;2.08;;
13866;SDS011;7003;46.982;15.248;2022-08-19T07:29:11;3.08;;;2.22;;
13866;SDS011;7003;46.982;15.248;2022-08-19T07:31:42;3.47;;;2.42;;
13866;SDS011;7003;46.982;15.248;2022-08-19T07:34:12;2.72;;;2.53;;
13866;SDS011;7003;46.982;15.248;2022-08-19T07:36:43;5.38;;;2.35;;
13866;SDS011;7003;46.982;15.248;2022-08-19T07:39:13;4.25;;;2.67;;
13866;SDS011;7003;46.982;15.248;2022-08-19T07:41:46;2.20;;;1.95;;
13866;SDS011;7003;46.982;15.248;2022-08-19T07:44:16;2.33;;;2.00;;
13866;SDS011;7003;46.982;15.248;2022-08-19T07:46:50;3.03;;;1.58;;
13866;SDS011;7003;46.982;15.248;2022-08-19T07:49:21;4.22;;;2.33;;
13866;SDS011;7003;46.982;15.248;2022-08-19T07:51:52;2.75;;;1.52;;
13866;SDS011;7003;46.982;15.248;2022-08-19T07:54:24;3.20;;;2.25;;
13866;SDS011;7003;46.982;15.248;2022-08-19T07:56:54;2.13;;;1.92;;
13866;SDS011;7003;46.982;15.248;2022-08-19T07:59:24;2.17;;;1.98;;
13866;SDS011;7003;46.982;15.248;2022-08-19T08:01:54;3.30;;;2.03;;
13866;SDS011;7003;46.982;15.248;2022-08-19T08:04:26;3.40;;;2.45;;
13866;SDS011;7003;46.982;15.248;2022-08-19T08:07:12;3.45;;;2.92;;
13866;SDS011;7003;46.982;15.248;2022-08-19T08:09:58;3.00;;;2.55;;
13866;SDS011;7003;46.982;15.248;2022-08-19T08:12:28;5.07;;;2.33;;
13866;SDS011;7003;46.982;15.248;2022-08-19T08:15:01;6.20;;;2.28;;
13866;SDS011;7003;46.982;15.248;2022-08-19T08:17:36;2.97;;;1.98;;
13866;SDS011;7003;46.982;15.248;2022-08-19T08:20:07;2.35;;;2.15;;
13866;SDS011;7003;46.982;15.248;2022-08-19T08:22:42;3.03;;;2.70;;
13866;SDS011;7003;46.982;15.248;2022-08-19T08:25:28;2.38;;;2.17;;
13866;SDS011;7003;46.982;15.248;2022-08-19T08:27:57;4.07;;;2.38;;
13866;SDS011;7003;46.982;15.248;2022-08-19T08:30:29;3.22;;;2.08;;
13866;SDS011;7003;46.982;15.248;2022-08-19T08:33:03;2.40;;;2.22;;
13866;SDS011;7003;46.982;15.248;2022-08-19T08:35:33;2.55;;;2.15;;
13866;SDS011;7003;46.982;15.248;2022-08-19T08:38:02;5.57;;;2.65;;
13866;SDS011;7003;46.982;15.248;2022-08-19T08:40:33;2.78;;;2.47;;
13866;SDS011;7003;46.982;15.248;2022-08-19T08:43:11;2.85;;;2.65;;
13866;SDS011;7003;46.982;15.248;2022-08-19T08:45:52;2.35;;;2.15;;
13866;SDS011;7003;46.982;15.248;2022-08-19T08:48:24;3.40;;;2.80;;
13866;SDS011;7003;46.982;15.248;2022-08-19T08:51:06;2.17;;;1.95;;
13866;SDS011;7003;46.982;15.248;2022-08-19T08:53:38;2.65;;;1.98;;
13866;SDS011;7003;46.982;15.248;2022-08-19T08:56:09;1.98;;;1.88;;
13866;SDS011;7003;46.982;15.248;2022-08-19T08:58:49;2.85;;;1.58;;
13866;SDS011;7003;46.982;15.248;2022-08-19T09:01:27;2.60;;;2.35;;
13866;SDS011;7003;46.982;15.248;2022-08-19T09:03:56;3.33;;;2.13;;
13866;SDS011;7003;46.982;15.248;2022-08-19T09:06:28;4.70;;;2.40;;
13866;SDS011;7003;46.982;15.248;2022-08-19T09:09:17;1.63;;;1.52;;
13866;SDS011;7003;46.982;15.248;2022-08-19T09:11:52;6.47;;;1.95;;
13866;SDS011;7003;46.982;15.248;2022-08-19T09:14:35;3.10;;;1.83;;
13866;SDS011;7003;46.982;15.248;2022-08-19T09:17:09;1.50;;;1.40;;
13866;SDS011;7003;46.982;15.248;2022-08-19T09:19:46;2.75;;;1.83;;
13866;SDS011;7003;46.982;15.248;2022-08-19T09:22:21;4.50;;;1.83;;
13866;SDS011;7003;46.982;15.248;2022-08-19T09:24:49;4.93;;;2.30;;
13866;SDS011;7003;46.982;15.248;2022-08-19T09:27:20;2.92;;;2.03;;
13866;SDS011;7003;46.982;15.248;2022-08-19T09:29:52;5.15;;;2.10;;
13866;SDS011;7003;46.982;15.248;2022-08-19T09:32:22;2.10;;;1.52;;
13866;SDS011;7003;46.982;15.248;2022-08-19T09:34:52;1.38;;;1.25;;
13866;SDS011;7003;46.982;15.248;2022-08-19T09:37:28;1.70;;;1.60;;
13866;SDS011;7003;46.982;15.248;2022-08-19T09:39:59;7.57;;;1.73;;
13866;SDS011;7003;46.982;15.248;2022-08-19T09:42:31;1.45;;;1.35;;
13866;SDS011;7003;46.982;15.248;2022-08-19T09:44:59;1.58;;;1.48;;
13866;SDS011;7003;46.982;15.248;2022-08-19T09:47:29;1.83;;;1.60;;
13866;SDS011;7003;46.982;15.248;2022-08-19T09:49:57;2.22;;;1.45;;
13866;SDS011;7003;46.982;15.248;2022-08-19T09:52:31;1.10;;;1.10;;
13866;SDS011;7003;46.982;15.248;2022-08-19T09:55:03;1.45;;;1.23;;
13866;SDS011;7003;46.982;15.248;2022-08-19T09:57:32;1.45;;;1.35;;
13866;SDS011;7003;46.982;15.248;2022-08-19T10:00:00;1.10;;;1.02;;
13866;SDS011;7003;46.982;15.248;2022-08-19T10:02:29;3.00;;;1.55;;
13866;SDS011;7003;46.982;15.248;2022-08-19T10:04:57;3.55;;;1.30;;
13866;SDS011;7003;46.982;15.248;2022-08-19T10:07:46;1.70;;;1.60;;
13866;SDS011;7003;46.982;15.248;2022-08-19T10:10:15;2.00;;;1.27;;
13866;SDS011;7003;46.982;15.248;2022-08-19T10:12:46;2.30;;;1.50;;
13866;SDS011;7003;46.982;15.248;2022-08-19T10:15:18;6.00;;;1.73;;
13866;SDS011;7003;46.982;15.248;2022-08-19T10:17:48;0.98;;;0.98;;
13866;SDS011;7003;46.982;15.248;2022-08-19T10:20:18;1.17;;;1.13;;
13866;SDS011;7003;46.982;15.248;2022-08-19T10:22:48;1.92;;;1.65;;
13866;SDS011;7003;46.982;15.248;2022-08-19T10:25:16;2.33;;;1.67;;
13866;SDS011;7003;46.982;15.248;2022-08-19T10:27:44;1.40;;;1.30;;
13866;SDS011;7003;46.982;15.248;2022-08-19T10:30:12;2.63;;;1.67;;
13866;SDS011;7003;46.982;15.248;2022-08-19T10:32:40;2.55;;;1.40;;
13866;SDS011;7003;46.982;15.248;2022-08-19T10:35:12;2.47;;;2.08;;
13866;SDS011;7003;46.982;15.248;2022-08-19T10:37:43;1.60;;;1.50;;
13866;SDS011;7003;46.982;15.248;2022-08-19T10:40:15;2.33;;;1.70;;
13866;SDS011;7003;46.982;15.248;2022-08-19T10:42:43;2.33;;;2.22;;
13866;SDS011;7003;46.982;15.248;2022-08-19T10:45:11;1.63;;;1.52;;
13866;SDS011;7003;46.982;15.248;2022-08-19T10:47:41;4.20;;;1.92;;
13866;SDS011;7003;46.982;15.248;2022-08-19T10:50:09;4.45;;;2.00;;
13866;SDS011;7003;46.982;15.248;2022-08-19T10:52:56;2.75;;;2.22;;
13866;SDS011;7003;46.982;15.248;2022-08-19T10:55:26;3.88;;;2.15;;
13866;SDS011;7003;46.982;15.248;2022-08-19T10:58:12;1.98;;;1.63;;
13866;SDS011;7003;46.982;15.248;2022-08-19T11:00:41;6.32;;;2.88;;
13866;SDS011;7003;46.982;15.248;2022-08-19T11:03:09;2.08;;;1.55;;
13866;SDS011;7003;46.982;15.248;2022-08-19T11:05:40;2.15;;;1.95;;
13866;SDS011;7003;46.982;15.248;2022-08-19T11:08:10;1.63;;;1.52;;
13866;SDS011;7003;46.982;15.248;2022-08-19T11:10:42;2.63;;;2.42;;
13866;SDS011;7003;46.982;15.248;2022-08-19T11:13:10;1.92;;;1.70;;
13866;SDS011;7003;46.982;15.248;2022-08-19T11:15:40;3.05;;;2.13;;
13866;SDS011;7003;46.982;15.248;2022-08-19T11:18:14;1.95;;;1.75;;
13866;SDS011;7003;46.982;15.248;2022-08-19T11:20:45;3.70;;;1.70;;
13866;SDS011;7003;46.982;15.248;2022-08-19T11:23:18;4.95;;;1.75;;
13866;SDS011;7003;46.982;15.248;2022-08-19T11:25:50;1.58;;;1.48;;
13866;SDS011;7003;46.982;15.248;2022-08-19T11:28:21;2.53;;;1.80;;
13866;SDS011;7003;46.982;15.248;2022-08-19T11:30:49;2.78;;;1.60;;
13866;SDS011;7003;46.982;15.248;2022-08-19T11:33:17;4.93;;;1.63;;
13866;SDS011;7003;46.982;15.248;2022-08-19T11:35:48;3.30;;;2.08;;
13866;SDS011;7003;46.982;15.248;2022-08-19T11:38:17;2.50;;;1.70;;
13866;SDS011;7003;46.982;15.248;2022-08-19T11:40:55;2.75;;;2.00;;
13866;SDS011;7003;46.982;15.248;2022-08-19T11:43:24;5.43;;;1.85;;
13866;SDS011;7003;46.982;15.248;2022-08-19T11:45:55;2.33;;;2.08;;
13866;SDS011;7003;46.982;15.248;2022-08-19T11:48:24;2.22;;;2.03;;
13866;SDS011;7003;46.982;15.248;2022-08-19T11:50:52;5.10;;;3.28;;
13866;SDS011;7003;46.982;15.248;2022-08-19T11:53:25;3.13;;;2.40;;
13866;SDS011;7003;46.982;15.248;2022-08-19T11:55:56;3.03;;;2.33;;
13866;SDS011;7003;46.982;15.248;2022-08-19T11:58:27;1.40;;;1.27;;
13866;SDS011;7003;46.982;15.248;2022-08-19T12:00:58;1.90;;;1.67;;
13866;SDS011;7003;46.982;15.248;2022-08-19T12:03:29;4.07;;;1.95;;
13866;SDS011;7003;46.982;15.248;2022-08-19T12:06:02;1.90;;;1.60;;
13866;SDS011;7003;46.982;15.248;2022-08-19T12:08:31;3.13;;;2.72;;
13866;SDS011;7003;46.982;15.248;2022-08-19T12:11:00;1.40;;;1.30;;
13866;SDS011;7003;46.982;15.248;2022-08-19T12:13:31;3.95;;;1.83;;
13866;SDS011;7003;46.982;15.248;2022-08-19T12:16:06;1.50;;;1.27;;
13866;SDS011;7003;46.982;15.248;2022-08-19T12:18:35;2.00;;;1.70;;
13866;SDS011;7003;46.982;15.248;2022-08-19T12:21:03;1.77;;;1.38;;
13866;SDS011;7003;46.982;15.248;2022-08-19T12:23:31;2.55;;;2.13;;
13866;SDS011;7003;46.982;15.248;2022-08-19T12:26:03;2.03;;;1.80;;
13866;SDS011;7003;46.982;15.248;2022-08-19T12:28:33;1.88;;;1.77;;
13866;SDS011;7003;46.982;15.248;2022-08-19T12:31:02;1.88;;;1.58;;
13866;SDS011;7003;46.982;15.248;2022-08-19T12:33:31;2.05;;;1.75;;
13866;SDS011;7003;46.982;15.248;2022-08-19T12:36:00;1.65;;;1.55;;
13866;SDS011;7003;46.982;15.248;2022-08-19T12:38:29;2.38;;;1.90;;
13866;SDS011;7003;46.982;15.248;2022-08-19T12:40:58;1.80;;;1.48;;
13866;SDS011;7003;46.982;15.248;2022-08-19T12:43:27;6.93;;;2.03;;
13866;SDS011;7003;46.982;15.248;2022-08-19T12:45:58;3.30;;;2.13;;
13866;SDS011;7003;46.982;15.248;2022-08-19T12:48:28;2.78;;;2.00;;
13866;SDS011;7003;46.982;15.248;2022-08-19T12:50:57;2.05;;;1.85;;
13866;SDS011;7003;46.982;15.248;2022-08-19T12:53:25;3.05;;;2.10;;
13866;SDS011;7003;46.982;15.248;2022-08-19T12:55:58;2.85;;;2.65;;
13866;SDS011;7003;46.982;15.248;2022-08-19T12:58:28;2.25;;;1.83;;
13866;SDS011;7003;46.982;15.248;2022-08-19T13:00:56;1.77;;;1.50;;
13866;SDS011;7003;46.982;15.248;2022-08-19T13:03:25;4.95;;;1.77;;
13866;SDS011;7003;46.982;15.248;2022-08-19T13:05:55;1.42;;;1.33;;
13866;SDS011;7003;46.982;15.248;2022-08-19T13:08:23;3.33;;;1.92;;
13866;SDS011;7003;46.982;15.248;2022-08-19T13:10:51;4.10;;;1.95;;
13866;SDS011;7003;46.982;15.248;2022-08-19T13:13:20;3.95;;;2.28;;
13866;SDS011;7003;46.982;15.248;2022-08-19T13:15:50;1.38;;;1.30;;
13866;SDS011;7003;46.982;15.248;2022-08-19T13:18:21;4.10;;;1.67;;
13866;SDS011;7003;46.982;15.248;2022-08-19T13:20:52;1.48;;;1.38;;
13866;SDS011;7003;46.982;15.248;2022-08-19T13:23:20;4.00;;;1.65;;
13866;SDS011;7003;46.982;15.248;2022-08-19T13:25:55;1.33;;;1.23;;
13866;SDS011;7003;46.982;15.248;2022-08-19T13:28:23;1.40;;;1.30;;
13866;SDS011;7003;46.982;15.248;2022-08-19T13:30:53;4.57;;;3.78;;
13866;SDS011;7003;46.982;15.248;2022-08-19T13:33:38;8.45;;;4.72;;
13866;SDS011;7003;46.982;15.248;2022-08-19T13:36:06;4.18;;;2.72;;
13866;SDS011;7003;46.982;15.248;2022-08-19T13:38:34;3.25;;;2.13;;
13866;SDS011;7003;46.982;15.248;2022-08-19T13:41:05;4.57;;;1.85;;
13866;SDS011;7003;46.982;15.248;2022-08-19T13:43:33;3.03;;;1.42;;
13866;SDS011;7003;46.982;15.248;2022-08-19T13:46:08;3.92;;;1.90;;
13866;SDS011;7003;46.982;15.248;2022-08-19T13:48:39;1.88;;;1.50;;
13866;SDS011;7003;46.982;15.248;2022-08-19T13:51:08;2.85;;;2.00;;
13866;SDS011;7003;46.982;15.248;2022-08-19T13:53:38;4.50;;;2.13;;
13866;SDS011;7003;46.982;15.248;2022-08-19T13:56:10;2.13;;;1.42;;
13866;SDS011;7003;46.982;15.248;2022-08-19T13:58:43;1.40;;;1.20;;
13866;SDS011;7003;46.982;15.248;2022-08-19T14:01:17;1.90;;;1.67;;
13866;SDS011;7003;46.982;15.248;2022-08-19T14:03:47;1.88;;;1.77;;
13866;SDS011;7003;46.982;15.248;2022-08-19T14:06:15;2.22;;;1.52;;
13866;SDS011;7003;46.982;15.248;2022-08-19T14:08:46;2.65;;;2.10;;
13866;SDS011;7003;46.982;15.248;2022-08-19T14:11:15;2.20;;;1.83;;
13866;SDS011;7003;46.982;15.248;2022-08-19T14:13:44;1.60;;;1.42;;
13866;SDS011;7003;46.982;15.248;2022-08-19T14:16:12;2.55;;;1.80;;
13866;SDS011;7003;46.982;15.248;2022-08-19T14:18:45;3.47;;;2.15;;
13866;SDS011;7003;46.982;15.248;2022-08-19T14:21:16;4.45;;;3.10;;
13866;SDS011;7003;46.982;15.248;2022-08-19T14:23:53;2.30;;;2.10;;
13866;SDS011;7003;46.982;15.248;2022-08-19T14:26:22;3.53;;;2.15;;
13866;SDS011;7003;46.982;15.248;2022-08-19T14:28:53;2.17;;;1.98;;
13866;SDS011;7003;46.982;15.248;2022-08-19T14:31:29;1.67;;;1.42;;
13866;SDS011;7003;46.982;15.248;2022-08-19T14:33:57;1.60;;;1.50;;
13866;SDS011;7003;46.982;15.248;2022-08-19T14:36:26;4.75;;;1.75;;
13866;SDS011;7003;46.982;15.248;2022-08-19T14:38:56;5.68;;;2.17;;
13866;SDS011;7003;46.982;15.248;2022-08-19T14:41:26;2.63;;;2.42;;
13866;SDS011;7003;46.982;15.248;2022-08-19T14:43:56;5.43;;;1.80;;
13866;SDS011;7003;46.982;15.248;2022-08-19T14:46:28;5.20;;;1.60;;
13866;SDS011;7003;46.982;15.248;2022-08-19T14:48:57;2.95;;;2.38;;
13866;SDS011;7003;46.982;15.248;2022-08-19T14:51:25;1.88;;;1.50;;
13866;SDS011;7003;46.982;15.248;2022-08-19T14:53:53;1.70;;;1.60;;
13866;SDS011;7003;46.982;15.248;2022-08-19T14:56:25;2.03;;;1.88;;
13866;SDS011;7003;46.982;15.248;2022-08-19T14:58:59;2.95;;;2.67;;
13866;SDS011;7003;46.982;15.248;2022-08-19T15:01:27;3.13;;;1.77;;
13866;SDS011;7003;46.982;15.248;2022-08-19T15:03:56;5.80;;;1.65;;
13866;SDS011;7003;46.982;15.248;2022-08-19T15:06:25;3.95;;;1.75;;
13866;SDS011;7003;46.982;15.248;2022-08-19T15:08:56;3.42;;;1.75;;